Yantic, Connecticut
Current Conditions -  °F | °C
As of 12:52 PM on Thursday 27 Nov 2014 (Local Time) from KIJD Reporting Station
Overcast Overcast  
Wind Chill: 30°   Ceiling: 2900
Heat Index: 37°   Visibility: 10mi
Dew Point: 29°   Wind: 9mph
Humidity: 73%   Direction: 350°N
Pressure: 29.95"   Gusts: NA
Location:  41.56°N, 72.12°W
Report Text: KIJD 271752Z AUTO 35008KT 10SM SCT017 OVC029 03/M02 A2995 RMK AO2 SLP144 T00281017 10028 20000 56010
Loading
Personal Weather Stations






























Interactive Weather Map New forecast layout! Learn more

10-Day Weather Forecast

Advertisements
Track Severe Weather on mobile